Jacksonville, FL (32259)

6:19 AM EDT on August 31, 2015 (GMT -0400)
Executive Cove | | Change Station
CLOSE
Current Station
Personal Weather Station
Location: Fruit Cove, FL
Elevation: 15 ft
Nearby Weather Stations
Active Advisory: Areal Flood Watch Active Notice: Local Storm Report

Elev 15 ft 30.11 °N, 81.64 °W | Updated 6 seconds ago

Overcast
Overcast
75.5 °F
Feels Like 74 °F
N
1.0
Wind Variable Wind from ENE
Gusts 3.0 mph

Today
High -- | Low -- °F
--% Chance of Precip.
Yesterday
High -- | Low -- °F
Precip. -- in
7:02 AM 7:50 PM
Waning Gibbous, 96% visible
Pressure 29.99 in
Visibility 10.0 miles
Clouds Overcast 800 ft
Heat Index 74 °F
Dew Point 74 °F
Humidity 95%
Rainfall 0.00 in
Snow Depth Not available.
UV 0 out of 12
Pollen 2.90 out of 12
Air Quality Not available.
Flu Activity Not available.
METAR KNIP 310953Z 24003KT 10SM OVC008 26/24 A3000 RMK AO2 SLP155 T02610239
Pressure 29.99 in
Visibility 10.0 miles
Clouds Overcast 800 ft
Heat Index 74 °F
Dew Point 74 °F
Humidity 95%
Rainfall 0.00 in
Snow Depth Not available.
UV 0 out of 12
Pollen 2.90 out of 12
Air Quality Not available.
Flu Activity Not available.
METAR KNIP 310953Z 24003KT 10SM OVC008 26/24 A3000 RMK AO2 SLP155 T02610239

10-Day Weather Forecast

×

Almanac

Astronomy

Aug. 31, 2015 Rise Set
Actual Time
Civil Twilight
Nautical Twilight
Astronomical Twilight
Moon
Length of Visible Light
Length of Day
Tomorrow will be .
, % of the Moon is Illuminated

Today's Extremes

State Highs State Lows

Community

WunderPhotos

Upload Photos

1,851,229 photos uploaded!

WunderBlogs® & News

Nearby

Air Quality

  Air Quality AQ Index Pollutant
Not available.

Snow Depth

Station Depth Elevation

Earthquake Activity

City Distance Mag. Time & Date
Minimum magnitude displayed is 2.5.

Coastal Water Temperatures

Place Temperature

Stations

Nearby Weather Stations

Station Location Temp. Windchill Dew Point Humidity Wind Precip. Elev Updated Type
                   
Areal Flood Watch
Statement as of 4:16 AM EDT on August 31, 2015

... Flood Watch remains in effect through this evening...

The Flood Watch continues for

* portions of northeast Florida and northern Florida... including
the following in northeast ... Florida... Flagler... Putnam and
St. Johns. In northern Florida... Marion.

* Through this evening

* deep tropical moisture over the region may produce additional
rainfall amounts of 1 to 3 inches with locally higher amounts
possible. The grounds are saturated from recent rains and any
additional heavy rainfall amounts will run off and cause
flooding.

* Heavy rain may create significant flooding of streets... urban
areas... and low lying flood prone areas.

Precautionary/preparedness actions...

A Flood Watch means there is a potential for flooding based on
current forecasts.

You should monitor later forecasts and be alert for possible
flood warnings. Those living in areas prone to flooding should be
prepared to take action should flooding develop.



Jds